Terminal Aerodrome Forecast
Issued by NWS Sioux Falls, SD

Home | Current Version | Previous Version | Text Only | Print | Product List | Glossary On
Versions: 1 2 3 4 5 6 7 8 9 10 11 12 13 14 15 16
000
FTUS43 KFSD 202019 AAB
TAFFSD
TAF AMD
KFSD 202019Z 2020/2118 28012G19KT P6SM SCT100
     FM210000 31015G25KT P6SM SCT060
     FM210300 30006KT P6SM SKC=

USA.gov is the U.S. government's official web portal to all federal, state and local government web resources and services.